Enter the Airport ICAO Code

Search by Airport or City

Current Weather

LGAV | Athens International Airport (Eleftherios Venizelos Airport)

Athens, Greece

Last Update 23 Minutes Ago

Partly Cloudy Sky

Temperature of 28 ºC

Light to Moderate Winds from East

Temperature

28 ºC

Dew Point Temperature

16 ºC

Relative Humidity

48.3 %

Wind Direction

East (080º, Ranging from 020º to 130º)

Wind Velocity

9 km/h (05 kt)

Gusts

None

Visibility

Greater than 10 Kilometers

Sea Level Pressure

1012 hPa (Hectopascals)

Layers of Clouds

30% to 60% of Sky Covered from 914 mts (3000 ft) Above Ground Level.

30% to 60% of Sky Covered from 2134 mts (7000 ft) Above Ground Level.

METAR LGAV 191150Z 08005KT 020V130 9999 SCT030 SCT070 28/16 Q1012 NOSIG

Weather Forecast

LGAV | Athens International Airport (Eleftherios Venizelos Airport)

Athens, Greece

Forecast valid for the next 24 Hours

From now on it is expected:

Partly Cloudy Sky

Moderate Winds from East

From now on it is expected 4 hours with intermittent periods of:

Thunderstorm with Rain

In 4 to 6 hours it is expected the begining of:

Light to Moderate Winds from Variable Directions

Maximum Temperature

No Data

Minimum Temperature

No Data

TAF LGAV 191100Z 1912/2012 09010KT 9999 SCT030 SCT070 PROB30 TEMPO 1912/1916 4000 TSRA FEW018CB SCT025 BKN070 BECMG 1916/1918 VRB05KT